sensor_id;sensor_type;location;lat;lon;timestamp;temperature;humidity
2162;DHT22;1087;50.226;8.682;2022-12-29T00:01:52;9.50;99.90
2162;DHT22;1087;50.226;8.682;2022-12-29T00:04:18;9.50;99.90
2162;DHT22;1087;50.226;8.682;2022-12-29T00:06:44;9.50;99.90
2162;DHT22;1087;50.226;8.682;2022-12-29T00:09:13;9.50;99.90
2162;DHT22;1087;50.226;8.682;2022-12-29T00:11:38;9.50;99.90
2162;DHT22;1087;50.226;8.682;2022-12-29T00:14:04;9.40;99.90
2162;DHT22;1087;50.226;8.682;2022-12-29T00:16:48;9.50;99.90
2162;DHT22;1087;50.226;8.682;2022-12-29T00:19:14;9.50;99.90
2162;DHT22;1087;50.226;8.682;2022-12-29T00:21:58;9.50;99.90
2162;DHT22;1087;50.226;8.682;2022-12-29T00:24:44;9.60;99.90
2162;DHT22;1087;50.226;8.682;2022-12-29T00:27:29;9.60;99.90
2162;DHT22;1087;50.226;8.682;2022-12-29T00:30:17;9.60;99.90
2162;DHT22;1087;50.226;8.682;2022-12-29T00:33:20;9.70;99.90
2162;DHT22;1087;50.226;8.682;2022-12-29T00:36:28;9.70;99.90
2162;DHT22;1087;50.226;8.682;2022-12-29T00:39:06;9.70;99.90
2162;DHT22;1087;50.226;8.682;2022-12-29T00:41:51;9.70;99.90
2162;DHT22;1087;50.226;8.682;2022-12-29T00:44:35;9.70;99.90
2162;DHT22;1087;50.226;8.682;2022-12-29T00:47:00;9.70;99.90
2162;DHT22;1087;50.226;8.682;2022-12-29T00:49:28;9.80;99.90
2162;DHT22;1087;50.226;8.682;2022-12-29T00:54:23;9.90;99.90
2162;DHT22;1087;50.226;8.682;2022-12-29T00:56:50;9.80;99.90
2162;DHT22;1087;50.226;8.682;2022-12-29T00:59:16;9.90;99.90
2162;DHT22;1087;50.226;8.682;2022-12-29T01:01:43;9.90;99.90
2162;DHT22;1087;50.226;8.682;2022-12-29T01:04:09;9.90;99.90
2162;DHT22;1087;50.226;8.682;2022-12-29T01:06:39;9.90;99.90
2162;DHT22;1087;50.226;8.682;2022-12-29T01:09:06;10.00;99.90
2162;DHT22;1087;50.226;8.682;2022-12-29T01:11:51;10.00;99.90
2162;DHT22;1087;50.226;8.682;2022-12-29T01:14:17;10.00;99.90
2162;DHT22;1087;50.226;8.682;2022-12-29T01:16:43;10.00;99.90
2162;DHT22;1087;50.226;8.682;2022-12-29T01:19:09;10.10;99.90
2162;DHT22;1087;50.226;8.682;2022-12-29T01:21:34;10.10;99.90
2162;DHT22;1087;50.226;8.682;2022-12-29T01:24:00;10.10;99.90
2162;DHT22;1087;50.226;8.682;2022-12-29T01:26:26;10.10;99.90
2162;DHT22;1087;50.226;8.682;2022-12-29T01:28:51;10.10;99.90
2162;DHT22;1087;50.226;8.682;2022-12-29T01:31:17;10.10;99.90
2162;DHT22;1087;50.226;8.682;2022-12-29T01:33:43;10.10;99.90
2162;DHT22;1087;50.226;8.682;2022-12-29T01:36:11;10.10;99.90
2162;DHT22;1087;50.226;8.682;2022-12-29T01:38:38;10.10;99.90
2162;DHT22;1087;50.226;8.682;2022-12-29T01:41:05;10.20;99.90
2162;DHT22;1087;50.226;8.682;2022-12-29T01:43:58;10.20;99.90
2162;DHT22;1087;50.226;8.682;2022-12-29T01:46:38;10.20;99.90
2162;DHT22;1087;50.226;8.682;2022-12-29T01:49:21;10.20;99.90
2162;DHT22;1087;50.226;8.682;2022-12-29T01:51:57;10.20;99.90
2162;DHT22;1087;50.226;8.682;2022-12-29T01:56:57;10.20;99.90
2162;DHT22;1087;50.226;8.682;2022-12-29T01:59:27;10.10;99.90
2162;DHT22;1087;50.226;8.682;2022-12-29T02:01:55;10.10;99.90
2162;DHT22;1087;50.226;8.682;2022-12-29T02:04:23;10.20;99.90
2162;DHT22;1087;50.226;8.682;2022-12-29T02:06:55;10.10;99.90
2162;DHT22;1087;50.226;8.682;2022-12-29T02:09:22;10.10;99.90
2162;DHT22;1087;50.226;8.682;2022-12-29T02:11:48;10.10;99.90
2162;DHT22;1087;50.226;8.682;2022-12-29T02:14:14;10.10;99.90
2162;DHT22;1087;50.226;8.682;2022-12-29T02:17:08;10.10;99.90
2162;DHT22;1087;50.226;8.682;2022-12-29T02:22:27;10.20;99.90
2162;DHT22;1087;50.226;8.682;2022-12-29T02:25:28;10.20;99.90
2162;DHT22;1087;50.226;8.682;2022-12-29T02:36:10;10.10;99.90
2162;DHT22;1087;50.226;8.682;2022-12-29T02:41:50;10.10;99.90
2162;DHT22;1087;50.226;8.682;2022-12-29T02:44:28;10.10;99.90
2162;DHT22;1087;50.226;8.682;2022-12-29T02:47:03;10.20;99.90
2162;DHT22;1087;50.226;8.682;2022-12-29T02:52:05;10.20;99.90
2162;DHT22;1087;50.226;8.682;2022-12-29T02:54:32;10.20;99.90
2162;DHT22;1087;50.226;8.682;2022-12-29T03:00:00;10.20;99.90
2162;DHT22;1087;50.226;8.682;2022-12-29T03:03:38;10.20;99.90
2162;DHT22;1087;50.226;8.682;2022-12-29T03:08:36;10.20;99.90
2162;DHT22;1087;50.226;8.682;2022-12-29T03:11:05;10.20;99.90
2162;DHT22;1087;50.226;8.682;2022-12-29T03:16:32;10.20;99.90
2162;DHT22;1087;50.226;8.682;2022-12-29T03:19:14;10.30;99.90
2162;DHT22;1087;50.226;8.682;2022-12-29T03:22:14;10.20;99.90
2162;DHT22;1087;50.226;8.682;2022-12-29T03:24:53;10.20;99.90
2162;DHT22;1087;50.226;8.682;2022-12-29T03:27:23;10.20;99.90
2162;DHT22;1087;50.226;8.682;2022-12-29T03:29:54;10.20;99.90
2162;DHT22;1087;50.226;8.682;2022-12-29T03:32:22;10.30;99.90
2162;DHT22;1087;50.226;8.682;2022-12-29T03:34:49;10.20;99.90
2162;DHT22;1087;50.226;8.682;2022-12-29T03:37:19;10.20;99.90
2162;DHT22;1087;50.226;8.682;2022-12-29T03:39:46;10.30;99.90
2162;DHT22;1087;50.226;8.682;2022-12-29T03:42:15;10.40;99.90
2162;DHT22;1087;50.226;8.682;2022-12-29T03:44:44;10.30;99.90
2162;DHT22;1087;50.226;8.682;2022-12-29T03:47:14;10.40;99.90
2162;DHT22;1087;50.226;8.682;2022-12-29T03:49:40;10.40;99.90
2162;DHT22;1087;50.226;8.682;2022-12-29T03:52:06;10.40;99.90
2162;DHT22;1087;50.226;8.682;2022-12-29T03:54:32;10.40;99.90
2162;DHT22;1087;50.226;8.682;2022-12-29T03:56:58;10.50;99.90
2162;DHT22;1087;50.226;8.682;2022-12-29T03:59:23;10.50;99.90
2162;DHT22;1087;50.226;8.682;2022-12-29T04:01:49;10.50;99.90
2162;DHT22;1087;50.226;8.682;2022-12-29T04:04:14;10.50;99.90
2162;DHT22;1087;50.226;8.682;2022-12-29T04:06:40;10.50;99.90
2162;DHT22;1087;50.226;8.682;2022-12-29T04:09:05;10.50;99.90
2162;DHT22;1087;50.226;8.682;2022-12-29T04:11:31;10.50;99.90
2162;DHT22;1087;50.226;8.682;2022-12-29T04:13:57;10.60;99.90
2162;DHT22;1087;50.226;8.682;2022-12-29T04:16:22;10.60;99.90
2162;DHT22;1087;50.226;8.682;2022-12-29T04:18:47;10.60;99.90
2162;DHT22;1087;50.226;8.682;2022-12-29T04:21:13;10.60;99.90
2162;DHT22;1087;50.226;8.682;2022-12-29T04:23:39;10.60;99.90
2162;DHT22;1087;50.226;8.682;2022-12-29T04:26:05;10.70;99.90
2162;DHT22;1087;50.226;8.682;2022-12-29T04:28:35;10.70;99.90
2162;DHT22;1087;50.226;8.682;2022-12-29T04:31:01;10.70;99.90
2162;DHT22;1087;50.226;8.682;2022-12-29T04:33:26;10.70;99.90
2162;DHT22;1087;50.226;8.682;2022-12-29T04:35:53;10.70;99.90
2162;DHT22;1087;50.226;8.682;2022-12-29T04:38:19;10.60;99.90
2162;DHT22;1087;50.226;8.682;2022-12-29T04:40:45;10.70;99.90
2162;DHT22;1087;50.226;8.682;2022-12-29T04:43:12;10.70;99.90
2162;DHT22;1087;50.226;8.682;2022-12-29T04:45:42;10.70;99.90
2162;DHT22;1087;50.226;8.682;2022-12-29T04:48:07;10.70;99.90
2162;DHT22;1087;50.226;8.682;2022-12-29T04:50:33;10.70;99.90
2162;DHT22;1087;50.226;8.682;2022-12-29T04:52:58;10.60;99.90
2162;DHT22;1087;50.226;8.682;2022-12-29T04:55:24;10.60;99.90
2162;DHT22;1087;50.226;8.682;2022-12-29T04:57:49;10.60;99.90
2162;DHT22;1087;50.226;8.682;2022-12-29T05:00:15;10.60;99.90
2162;DHT22;1087;50.226;8.682;2022-12-29T05:02:41;10.60;99.90
2162;DHT22;1087;50.226;8.682;2022-12-29T05:05:06;10.60;99.90
2162;DHT22;1087;50.226;8.682;2022-12-29T05:07:33;10.60;99.90
2162;DHT22;1087;50.226;8.682;2022-12-29T05:09:59;10.60;99.90
2162;DHT22;1087;50.226;8.682;2022-12-29T05:12:25;10.60;99.90
2162;DHT22;1087;50.226;8.682;2022-12-29T05:14:51;10.70;99.90
2162;DHT22;1087;50.226;8.682;2022-12-29T05:17:16;10.70;99.90
2162;DHT22;1087;50.226;8.682;2022-12-29T05:19:42;10.80;99.90
2162;DHT22;1087;50.226;8.682;2022-12-29T05:22:07;10.80;99.90
2162;DHT22;1087;50.226;8.682;2022-12-29T05:24:33;10.80;99.90
2162;DHT22;1087;50.226;8.682;2022-12-29T05:26:58;10.80;99.90
2162;DHT22;1087;50.226;8.682;2022-12-29T05:29:24;10.80;99.90
2162;DHT22;1087;50.226;8.682;2022-12-29T05:31:49;10.90;99.90
2162;DHT22;1087;50.226;8.682;2022-12-29T05:34:15;10.90;99.90
2162;DHT22;1087;50.226;8.682;2022-12-29T05:36:40;10.90;99.90
2162;DHT22;1087;50.226;8.682;2022-12-29T05:39:06;10.80;99.90
2162;DHT22;1087;50.226;8.682;2022-12-29T05:41:33;10.80;99.90
2162;DHT22;1087;50.226;8.682;2022-12-29T05:43:59;10.80;99.90
2162;DHT22;1087;50.226;8.682;2022-12-29T05:46:25;10.80;99.90
2162;DHT22;1087;50.226;8.682;2022-12-29T05:48:50;10.80;99.90
2162;DHT22;1087;50.226;8.682;2022-12-29T05:51:16;10.80;99.90
2162;DHT22;1087;50.226;8.682;2022-12-29T05:53:41;10.70;99.90
2162;DHT22;1087;50.226;8.682;2022-12-29T05:56:07;10.70;99.90
2162;DHT22;1087;50.226;8.682;2022-12-29T05:58:32;10.70;99.90
2162;DHT22;1087;50.226;8.682;2022-12-29T06:00:58;10.70;99.90
2162;DHT22;1087;50.226;8.682;2022-12-29T06:03:23;10.70;99.90
2162;DHT22;1087;50.226;8.682;2022-12-29T06:05:49;10.70;99.90
2162;DHT22;1087;50.226;8.682;2022-12-29T06:08:14;10.80;99.90
2162;DHT22;1087;50.226;8.682;2022-12-29T06:10:40;10.80;99.90
2162;DHT22;1087;50.226;8.682;2022-12-29T06:13:06;10.80;99.90
2162;DHT22;1087;50.226;8.682;2022-12-29T06:15:32;10.70;99.90
2162;DHT22;1087;50.226;8.682;2022-12-29T06:17:58;10.70;99.90
2162;DHT22;1087;50.226;8.682;2022-12-29T06:20:23;10.70;99.90
2162;DHT22;1087;50.226;8.682;2022-12-29T06:22:49;10.70;99.90
2162;DHT22;1087;50.226;8.682;2022-12-29T06:25:15;10.70;99.90
2162;DHT22;1087;50.226;8.682;2022-12-29T06:27:41;10.70;99.90
2162;DHT22;1087;50.226;8.682;2022-12-29T06:30:07;10.70;99.90
2162;DHT22;1087;50.226;8.682;2022-12-29T06:32:34;10.80;99.90
2162;DHT22;1087;50.226;8.682;2022-12-29T06:34:59;10.80;99.90
2162;DHT22;1087;50.226;8.682;2022-12-29T06:37:25;10.80;99.90
2162;DHT22;1087;50.226;8.682;2022-12-29T06:39:51;10.80;99.90
2162;DHT22;1087;50.226;8.682;2022-12-29T06:42:16;10.80;99.90
2162;DHT22;1087;50.226;8.682;2022-12-29T06:44:42;10.80;99.90
2162;DHT22;1087;50.226;8.682;2022-12-29T06:47:08;10.70;99.90
2162;DHT22;1087;50.226;8.682;2022-12-29T06:49:33;10.80;99.90
2162;DHT22;1087;50.226;8.682;2022-12-29T06:51:59;10.80;99.90
2162;DHT22;1087;50.226;8.682;2022-12-29T06:54:26;10.80;99.90
2162;DHT22;1087;50.226;8.682;2022-12-29T06:56:51;10.80;99.90
2162;DHT22;1087;50.226;8.682;2022-12-29T06:59:17;10.80;99.90
2162;DHT22;1087;50.226;8.682;2022-12-29T07:01:43;10.70;99.90
2162;DHT22;1087;50.226;8.682;2022-12-29T07:04:08;10.70;99.90
2162;DHT22;1087;50.226;8.682;2022-12-29T07:06:34;10.80;99.90
2162;DHT22;1087;50.226;8.682;2022-12-29T07:08:59;10.80;99.90
2162;DHT22;1087;50.226;8.682;2022-12-29T07:11:25;10.80;99.90
2162;DHT22;1087;50.226;8.682;2022-12-29T07:13:50;10.80;99.90
2162;DHT22;1087;50.226;8.682;2022-12-29T07:16:16;10.80;99.90
2162;DHT22;1087;50.226;8.682;2022-12-29T07:18:41;10.70;99.90
2162;DHT22;1087;50.226;8.682;2022-12-29T07:21:07;10.70;99.90
2162;DHT22;1087;50.226;8.682;2022-12-29T07:23:32;10.70;99.90
2162;DHT22;1087;50.226;8.682;2022-12-29T07:26:00;10.70;99.90
2162;DHT22;1087;50.226;8.682;2022-12-29T07:28:25;10.80;99.90
2162;DHT22;1087;50.226;8.682;2022-12-29T07:30:51;10.90;99.90
2162;DHT22;1087;50.226;8.682;2022-12-29T07:33:16;10.80;99.90
2162;DHT22;1087;50.226;8.682;2022-12-29T07:35:42;10.80;99.90
2162;DHT22;1087;50.226;8.682;2022-12-29T07:38:07;10.80;99.90
2162;DHT22;1087;50.226;8.682;2022-12-29T07:40:33;10.80;99.90
2162;DHT22;1087;50.226;8.682;2022-12-29T07:42:58;10.80;99.90
2162;DHT22;1087;50.226;8.682;2022-12-29T07:45:24;10.90;99.90
2162;DHT22;1087;50.226;8.682;2022-12-29T07:47:50;10.90;99.90
2162;DHT22;1087;50.226;8.682;2022-12-29T07:50:15;10.80;99.90
2162;DHT22;1087;50.226;8.682;2022-12-29T07:52:41;10.80;99.90
2162;DHT22;1087;50.226;8.682;2022-12-29T07:55:07;10.90;99.90
2162;DHT22;1087;50.226;8.682;2022-12-29T07:57:32;10.90;99.90
2162;DHT22;1087;50.226;8.682;2022-12-29T07:59:58;10.90;99.90
2162;DHT22;1087;50.226;8.682;2022-12-29T08:02:23;10.90;99.90
2162;DHT22;1087;50.226;8.682;2022-12-29T08:04:51;10.90;99.90
2162;DHT22;1087;50.226;8.682;2022-12-29T08:07:16;10.90;99.90
2162;DHT22;1087;50.226;8.682;2022-12-29T08:09:42;10.90;99.90
2162;DHT22;1087;50.226;8.682;2022-12-29T08:12:10;10.90;99.90
2162;DHT22;1087;50.226;8.682;2022-12-29T08:14:36;10.90;99.90
2162;DHT22;1087;50.226;8.682;2022-12-29T08:17:01;11.00;99.90
2162;DHT22;1087;50.226;8.682;2022-12-29T08:19:27;11.00;99.90
2162;DHT22;1087;50.226;8.682;2022-12-29T08:21:53;11.00;99.90
2162;DHT22;1087;50.226;8.682;2022-12-29T08:24:18;11.00;99.90
2162;DHT22;1087;50.226;8.682;2022-12-29T08:26:44;11.00;99.90
2162;DHT22;1087;50.226;8.682;2022-12-29T08:29:09;11.00;99.90
2162;DHT22;1087;50.226;8.682;2022-12-29T08:31:35;11.10;99.90
2162;DHT22;1087;50.226;8.682;2022-12-29T08:34:01;11.10;99.90
2162;DHT22;1087;50.226;8.682;2022-12-29T08:36:28;11.10;99.90
2162;DHT22;1087;50.226;8.682;2022-12-29T08:38:54;11.10;99.90
2162;DHT22;1087;50.226;8.682;2022-12-29T08:41:19;11.10;99.90
2162;DHT22;1087;50.226;8.682;2022-12-29T08:43:48;11.10;99.90
2162;DHT22;1087;50.226;8.682;2022-12-29T08:46:15;11.10;99.90
2162;DHT22;1087;50.226;8.682;2022-12-29T08:48:41;11.10;99.90
2162;DHT22;1087;50.226;8.682;2022-12-29T08:51:06;11.10;99.90
2162;DHT22;1087;50.226;8.682;2022-12-29T08:53:33;11.20;99.90
2162;DHT22;1087;50.226;8.682;2022-12-29T08:56:00;11.20;99.90
2162;DHT22;1087;50.226;8.682;2022-12-29T08:58:26;11.20;99.90
2162;DHT22;1087;50.226;8.682;2022-12-29T09:00:56;11.20;99.90
2162;DHT22;1087;50.226;8.682;2022-12-29T09:03:23;11.20;99.90
2162;DHT22;1087;50.226;8.682;2022-12-29T09:05:53;11.20;99.90
2162;DHT22;1087;50.226;8.682;2022-12-29T09:08:19;11.20;99.90
2162;DHT22;1087;50.226;8.682;2022-12-29T09:10:45;11.20;99.90
2162;DHT22;1087;50.226;8.682;2022-12-29T09:13:12;11.10;99.90
2162;DHT22;1087;50.226;8.682;2022-12-29T09:15:38;11.20;99.90
2162;DHT22;1087;50.226;8.682;2022-12-29T09:18:05;11.20;99.90
2162;DHT22;1087;50.226;8.682;2022-12-29T09:20:30;11.20;99.90
2162;DHT22;1087;50.226;8.682;2022-12-29T09:22:56;11.10;99.90
2162;DHT22;1087;50.226;8.682;2022-12-29T09:25:21;11.10;99.90
2162;DHT22;1087;50.226;8.682;2022-12-29T09:27:50;11.20;99.90
2162;DHT22;1087;50.226;8.682;2022-12-29T09:30:18;11.20;99.90
2162;DHT22;1087;50.226;8.682;2022-12-29T09:32:44;11.20;99.90
2162;DHT22;1087;50.226;8.682;2022-12-29T09:35:09;11.10;99.90
2162;DHT22;1087;50.226;8.682;2022-12-29T09:37:35;11.20;99.90
2162;DHT22;1087;50.226;8.682;2022-12-29T09:40:01;11.20;99.90
2162;DHT22;1087;50.226;8.682;2022-12-29T09:42:45;11.20;99.90
2162;DHT22;1087;50.226;8.682;2022-12-29T09:45:27;11.20;99.90
2162;DHT22;1087;50.226;8.682;2022-12-29T09:47:54;11.20;99.90
2162;DHT22;1087;50.226;8.682;2022-12-29T09:50:26;11.20;99.90
2162;DHT22;1087;50.226;8.682;2022-12-29T09:53:03;11.20;99.90
2162;DHT22;1087;50.226;8.682;2022-12-29T09:55:42;11.20;99.90
2162;DHT22;1087;50.226;8.682;2022-12-29T09:58:28;11.30;99.90
2162;DHT22;1087;50.226;8.682;2022-12-29T10:01:07;11.30;99.90
2162;DHT22;1087;50.226;8.682;2022-12-29T10:03:49;11.30;99.90
2162;DHT22;1087;50.226;8.682;2022-12-29T10:06:17;11.30;99.90
2162;DHT22;1087;50.226;8.682;2022-12-29T10:08:50;11.30;99.90
2162;DHT22;1087;50.226;8.682;2022-12-29T10:25:39;11.10;99.90
2162;DHT22;1087;50.226;8.682;2022-12-29T10:28:24;11.10;99.90
2162;DHT22;1087;50.226;8.682;2022-12-29T10:30:50;11.20;99.90
2162;DHT22;1087;50.226;8.682;2022-12-29T10:33:30;11.10;99.90
2162;DHT22;1087;50.226;8.682;2022-12-29T10:35:57;11.10;99.90
2162;DHT22;1087;50.226;8.682;2022-12-29T10:38:37;11.10;99.90
2162;DHT22;1087;50.226;8.682;2022-12-29T10:41:13;11.00;99.90
2162;DHT22;1087;50.226;8.682;2022-12-29T10:43:46;11.00;99.90
2162;DHT22;1087;50.226;8.682;2022-12-29T10:46:16;11.00;99.90
2162;DHT22;1087;50.226;8.682;2022-12-29T10:48:42;11.00;99.90
2162;DHT22;1087;50.226;8.682;2022-12-29T10:51:11;11.10;99.90
2162;DHT22;1087;50.226;8.682;2022-12-29T10:53:51;11.10;99.90
2162;DHT22;1087;50.226;8.682;2022-12-29T10:56:35;11.10;99.90
2162;DHT22;1087;50.226;8.682;2022-12-29T11:02:00;11.10;99.90
2162;DHT22;1087;50.226;8.682;2022-12-29T11:07:16;11.20;99.90
2162;DHT22;1087;50.226;8.682;2022-12-29T11:09:43;11.10;99.90
2162;DHT22;1087;50.226;8.682;2022-12-29T11:12:23;11.20;99.90
2162;DHT22;1087;50.226;8.682;2022-12-29T11:15:12;11.20;99.90
2162;DHT22;1087;50.226;8.682;2022-12-29T11:17:54;11.30;99.90
2162;DHT22;1087;50.226;8.682;2022-12-29T11:20:34;11.30;99.90
2162;DHT22;1087;50.226;8.682;2022-12-29T11:23:02;11.30;99.90
2162;DHT22;1087;50.226;8.682;2022-12-29T11:25:29;11.30;99.90
2162;DHT22;1087;50.226;8.682;2022-12-29T11:28:01;11.30;99.90
2162;DHT22;1087;50.226;8.682;2022-12-29T11:30:30;11.30;99.90
2162;DHT22;1087;50.226;8.682;2022-12-29T11:32:56;11.40;99.90
2162;DHT22;1087;50.226;8.682;2022-12-29T11:35:42;11.40;99.90
2162;DHT22;1087;50.226;8.682;2022-12-29T11:38:24;11.50;99.90
2162;DHT22;1087;50.226;8.682;2022-12-29T11:40:51;11.50;99.90
2162;DHT22;1087;50.226;8.682;2022-12-29T11:43:34;11.50;99.90
2162;DHT22;1087;50.226;8.682;2022-12-29T11:46:02;11.50;99.90
2162;DHT22;1087;50.226;8.682;2022-12-29T11:48:33;11.50;99.90
2162;DHT22;1087;50.226;8.682;2022-12-29T11:51:03;11.60;99.90
2162;DHT22;1087;50.226;8.682;2022-12-29T11:53:45;11.70;99.90
2162;DHT22;1087;50.226;8.682;2022-12-29T11:56:22;11.60;99.90
2162;DHT22;1087;50.226;8.682;2022-12-29T11:58:50;11.60;99.90
2162;DHT22;1087;50.226;8.682;2022-12-29T12:04:23;11.60;99.90
2162;DHT22;1087;50.226;8.682;2022-12-29T12:07:18;11.70;99.90
2162;DHT22;1087;50.226;8.682;2022-12-29T12:09:53;11.70;99.90
2162;DHT22;1087;50.226;8.682;2022-12-29T12:12:32;11.80;99.90
2162;DHT22;1087;50.226;8.682;2022-12-29T12:15:01;11.70;99.90
2162;DHT22;1087;50.226;8.682;2022-12-29T12:17:50;11.80;99.90
2162;DHT22;1087;50.226;8.682;2022-12-29T12:23:16;11.90;99.90
2162;DHT22;1087;50.226;8.682;2022-12-29T12:26:03;11.90;99.90
2162;DHT22;1087;50.226;8.682;2022-12-29T12:34:00;11.90;99.90
2162;DHT22;1087;50.226;8.682;2022-12-29T12:39:11;11.90;99.90
2162;DHT22;1087;50.226;8.682;2022-12-29T12:47:37;11.90;99.90
2162;DHT22;1087;50.226;8.682;2022-12-29T12:50:35;12.00;99.90
2162;DHT22;1087;50.226;8.682;2022-12-29T13:07:52;12.10;99.90
2162;DHT22;1087;50.226;8.682;2022-12-29T13:10:37;12.10;99.90
2162;DHT22;1087;50.226;8.682;2022-12-29T13:13:32;12.10;99.90
2162;DHT22;1087;50.226;8.682;2022-12-29T13:16:14;12.20;99.90
2162;DHT22;1087;50.226;8.682;2022-12-29T13:18:53;12.20;99.90
2162;DHT22;1087;50.226;8.682;2022-12-29T13:21:26;12.20;99.90
2162;DHT22;1087;50.226;8.682;2022-12-29T13:26:33;12.10;99.90
2162;DHT22;1087;50.226;8.682;2022-12-29T13:29:18;12.10;99.90
2162;DHT22;1087;50.226;8.682;2022-12-29T13:34:36;11.90;99.90
2162;DHT22;1087;50.226;8.682;2022-12-29T13:37:12;12.00;99.90
2162;DHT22;1087;50.226;8.682;2022-12-29T13:39:46;12.00;99.90
2162;DHT22;1087;50.226;8.682;2022-12-29T13:42:13;12.00;99.90
2162;DHT22;1087;50.226;8.682;2022-12-29T13:47:40;12.00;99.90
2162;DHT22;1087;50.226;8.682;2022-12-29T13:50:25;12.00;99.90
2162;DHT22;1087;50.226;8.682;2022-12-29T13:55:37;12.00;99.90
2162;DHT22;1087;50.226;8.682;2022-12-29T14:01:18;12.00;99.90
2162;DHT22;1087;50.226;8.682;2022-12-29T14:03:49;11.90;99.90
2162;DHT22;1087;50.226;8.682;2022-12-29T14:06:23;11.90;99.90
2162;DHT22;1087;50.226;8.682;2022-12-29T14:08:52;12.00;99.90
2162;DHT22;1087;50.226;8.682;2022-12-29T14:11:21;12.00;99.90
2162;DHT22;1087;50.226;8.682;2022-12-29T14:13:49;11.90;99.90
2162;DHT22;1087;50.226;8.682;2022-12-29T14:16:33;12.00;99.90
2162;DHT22;1087;50.226;8.682;2022-12-29T14:19:24;12.00;99.90
2162;DHT22;1087;50.226;8.682;2022-12-29T14:21:54;12.00;99.90
2162;DHT22;1087;50.226;8.682;2022-12-29T14:24:38;12.00;99.90
2162;DHT22;1087;50.226;8.682;2022-12-29T14:34:49;11.80;99.90
2162;DHT22;1087;50.226;8.682;2022-12-29T14:40:19;11.70;99.90
2162;DHT22;1087;50.226;8.682;2022-12-29T14:42:50;11.70;99.90
2162;DHT22;1087;50.226;8.682;2022-12-29T14:47:52;11.70;99.90
2162;DHT22;1087;50.226;8.682;2022-12-29T14:50:42;11.70;99.90
2162;DHT22;1087;50.226;8.682;2022-12-29T14:53:41;11.70;99.90
2162;DHT22;1087;50.226;8.682;2022-12-29T14:56:09;11.80;99.90
2162;DHT22;1087;50.226;8.682;2022-12-29T14:58:51;11.70;99.90
2162;DHT22;1087;50.226;8.682;2022-12-29T15:01:39;11.70;99.90
2162;DHT22;1087;50.226;8.682;2022-12-29T15:04:17;11.70;99.90
2162;DHT22;1087;50.226;8.682;2022-12-29T15:06:44;11.70;99.90
2162;DHT22;1087;50.226;8.682;2022-12-29T15:09:27;11.70;99.90
2162;DHT22;1087;50.226;8.682;2022-12-29T15:11:57;11.70;99.90
2162;DHT22;1087;50.226;8.682;2022-12-29T15:17:00;11.70;99.90
2162;DHT22;1087;50.226;8.682;2022-12-29T15:19:27;11.70;99.90
2162;DHT22;1087;50.226;8.682;2022-12-29T15:21:54;11.70;99.90
2162;DHT22;1087;50.226;8.682;2022-12-29T15:24:20;11.70;99.90
2162;DHT22;1087;50.226;8.682;2022-12-29T15:26:47;11.60;99.90
2162;DHT22;1087;50.226;8.682;2022-12-29T15:29:37;11.60;99.90
2162;DHT22;1087;50.226;8.682;2022-12-29T15:34:45;11.60;99.90
2162;DHT22;1087;50.226;8.682;2022-12-29T15:37:19;11.50;99.90
2162;DHT22;1087;50.226;8.682;2022-12-29T15:39:45;11.50;99.90
2162;DHT22;1087;50.226;8.682;2022-12-29T15:45:13;11.50;99.90
2162;DHT22;1087;50.226;8.682;2022-12-29T15:47:42;11.50;99.90
2162;DHT22;1087;50.226;8.682;2022-12-29T15:50:12;11.60;99.90
2162;DHT22;1087;50.226;8.682;2022-12-29T15:52:39;11.50;99.90
2162;DHT22;1087;50.226;8.682;2022-12-29T15:55:06;11.50;99.90
2162;DHT22;1087;50.226;8.682;2022-12-29T15:57:42;11.50;99.90
2162;DHT22;1087;50.226;8.682;2022-12-29T16:00:32;11.50;99.90
2162;DHT22;1087;50.226;8.682;2022-12-29T16:03:05;11.60;99.90
2162;DHT22;1087;50.226;8.682;2022-12-29T16:05:36;11.60;99.90
2162;DHT22;1087;50.226;8.682;2022-12-29T16:08:02;11.60;99.90
2162;DHT22;1087;50.226;8.682;2022-12-29T16:10:36;11.50;99.90
2162;DHT22;1087;50.226;8.682;2022-12-29T16:15:52;11.40;99.90
2162;DHT22;1087;50.226;8.682;2022-12-29T16:18:24;11.40;99.90
2162;DHT22;1087;50.226;8.682;2022-12-29T16:20:52;11.40;99.90
2162;DHT22;1087;50.226;8.682;2022-12-29T16:23:22;11.40;99.90
2162;DHT22;1087;50.226;8.682;2022-12-29T16:25:48;11.30;99.90
2162;DHT22;1087;50.226;8.682;2022-12-29T16:28:19;11.30;99.90
2162;DHT22;1087;50.226;8.682;2022-12-29T16:30:46;11.20;99.90
2162;DHT22;1087;50.226;8.682;2022-12-29T16:36:32;11.20;99.90
2162;DHT22;1087;50.226;8.682;2022-12-29T16:39:35;11.30;99.90
2162;DHT22;1087;50.226;8.682;2022-12-29T16:47:47;11.30;99.90
2162;DHT22;1087;50.226;8.682;2022-12-29T16:50:20;11.30;99.90
2162;DHT22;1087;50.226;8.682;2022-12-29T16:52:49;11.30;99.90
2162;DHT22;1087;50.226;8.682;2022-12-29T16:55:17;11.30;99.90
2162;DHT22;1087;50.226;8.682;2022-12-29T16:57:44;11.20;99.90
2162;DHT22;1087;50.226;8.682;2022-12-29T17:00:25;11.20;99.90
2162;DHT22;1087;50.226;8.682;2022-12-29T17:02:54;11.20;99.90
2162;DHT22;1087;50.226;8.682;2022-12-29T17:05:21;11.20;99.90
2162;DHT22;1087;50.226;8.682;2022-12-29T17:07:48;11.10;99.90
2162;DHT22;1087;50.226;8.682;2022-12-29T17:10:14;11.10;99.90
2162;DHT22;1087;50.226;8.682;2022-12-29T17:12:41;10.90;99.90
2162;DHT22;1087;50.226;8.682;2022-12-29T17:15:15;11.00;99.90
2162;DHT22;1087;50.226;8.682;2022-12-29T17:17:45;11.00;99.90
2162;DHT22;1087;50.226;8.682;2022-12-29T17:22:44;11.00;99.90
2162;DHT22;1087;50.226;8.682;2022-12-29T17:25:21;11.00;99.90
2162;DHT22;1087;50.226;8.682;2022-12-29T17:28:00;11.00;99.90
2162;DHT22;1087;50.226;8.682;2022-12-29T17:30:28;10.90;99.90
2162;DHT22;1087;50.226;8.682;2022-12-29T17:33:05;11.00;99.90
2162;DHT22;1087;50.226;8.682;2022-12-29T17:35:33;10.80;99.90
2162;DHT22;1087;50.226;8.682;2022-12-29T17:37:58;10.80;99.90
2162;DHT22;1087;50.226;8.682;2022-12-29T17:40:26;10.70;99.90
2162;DHT22;1087;50.226;8.682;2022-12-29T17:42:55;10.80;99.90
2162;DHT22;1087;50.226;8.682;2022-12-29T17:45:28;10.90;99.90
2162;DHT22;1087;50.226;8.682;2022-12-29T17:47:54;10.90;99.90
2162;DHT22;1087;50.226;8.682;2022-12-29T17:50:22;10.80;99.90
2162;DHT22;1087;50.226;8.682;2022-12-29T17:53:02;10.90;99.90
2162;DHT22;1087;50.226;8.682;2022-12-29T17:55:29;10.90;99.90
2162;DHT22;1087;50.226;8.682;2022-12-29T17:57:55;10.90;99.90
2162;DHT22;1087;50.226;8.682;2022-12-29T18:00:23;10.80;99.90
2162;DHT22;1087;50.226;8.682;2022-12-29T18:02:52;10.80;99.90
2162;DHT22;1087;50.226;8.682;2022-12-29T18:05:26;10.80;99.90
2162;DHT22;1087;50.226;8.682;2022-12-29T18:07:54;10.90;99.90
2162;DHT22;1087;50.226;8.682;2022-12-29T18:10:22;10.90;99.90
2162;DHT22;1087;50.226;8.682;2022-12-29T18:12:50;10.80;99.90
2162;DHT22;1087;50.226;8.682;2022-12-29T18:15:26;10.80;99.90
2162;DHT22;1087;50.226;8.682;2022-12-29T18:18:13;10.70;99.90
2162;DHT22;1087;50.226;8.682;2022-12-29T18:20:40;10.60;99.90
2162;DHT22;1087;50.226;8.682;2022-12-29T18:25:53;10.60;99.90
2162;DHT22;1087;50.226;8.682;2022-12-29T18:28:20;10.60;99.90
2162;DHT22;1087;50.226;8.682;2022-12-29T18:30:46;10.70;99.90
2162;DHT22;1087;50.226;8.682;2022-12-29T18:33:16;10.70;99.90
2162;DHT22;1087;50.226;8.682;2022-12-29T18:35:48;10.60;99.90
2162;DHT22;1087;50.226;8.682;2022-12-29T18:38:15;10.70;99.90
2162;DHT22;1087;50.226;8.682;2022-12-29T18:40:41;10.70;99.90
2162;DHT22;1087;50.226;8.682;2022-12-29T18:43:08;10.70;99.90